Time;durP1;ratioP1;P1;durP2;ratioP2;P2;SDS_P1;SDS_P2;PMS_P1;PMS_P2;Temp;Humidity;BMP_temperature;BMP_pressure;BME280_temperature;BME280_humidity;BME280_pressure;Samples;Min_cycle;Max_cycle;Signal;HPM_P1;HPM_P2
2022/12/15 00:39:15;;;;;;;31.55;25.98;;;-4.20;99.90;;;;;;2073997;28;20030;-69
2022/12/15 00:40:15;;;;;;;34.22;27.10;;;-4.20;99.90;;;;;;2076266;28;20061;-69
2022/12/15 00:41:17;;;;;;;35.42;28.48;;;-4.20;99.90;;;;;;2076298;28;20060;-69
2022/12/15 00:42:17;;;;;;;32.42;26.40;;;-4.20;99.90;;;;;;2072744;28;20798;-69
2022/12/15 00:43:18;;;;;;;31.08;24.67;;;-4.20;99.90;;;;;;2082816;28;20032;-69
2022/12/15 00:44:19;;;;;;;36.05;27.45;;;-4.20;99.90;;;;;;2083938;28;20035;-69
2022/12/15 00:46:53;;;;;;;39.30;29.90;;;-4.20;99.90;;;;;;2073518;28;20156;-69
2022/12/15 00:46:55;;;;;;;34.17;27.50;;;-4.20;99.90;;;;;;2080498;28;20384;-69
2022/12/15 00:47:56;;;;;;;36.47;28.40;;;-4.20;99.90;;;;;;2073575;28;20160;-69
2022/12/15 00:48:57;;;;;;;35.10;27.25;;;-4.20;99.90;;;;;;2077194;28;20022;-69
2022/12/15 00:51:18;;;;;;;32.93;27.30;;;-4.20;99.90;;;;;;2077933;28;20477;-69
2022/12/15 01:20:18;;;;;;;39.75;29.02;;;-4.40;99.90;;;;;;2076422;28;20648;-69
2022/12/15 01:21:18;;;;;;;38.72;29.15;;;-4.40;99.90;;;;;;2075184;28;20033;-69
2022/12/15 01:22:19;;;;;;;38.17;29.88;;;-4.40;99.90;;;;;;2075447;28;20037;-69
2022/12/15 01:23:19;;;;;;;38.28;29.27;;;-4.30;99.90;;;;;;2077293;28;20031;-69
2022/12/15 01:24:20;;;;;;;41.05;31.67;;;-4.40;99.90;;;;;;2075947;28;20068;-69
2022/12/15 01:25:23;;;;;;;45.22;33.25;;;-4.30;99.90;;;;;;2074385;28;20106;-69
2022/12/15 01:26:23;;;;;;;40.33;31.98;;;-4.30;99.90;;;;;;2073674;28;20076;-69
2022/12/15 01:27:24;;;;;;;37.15;29.33;;;-4.30;99.90;;;;;;2076750;28;20079;-69
2022/12/15 01:28:24;;;;;;;37.55;29.52;;;-4.30;99.90;;;;;;2073937;28;20666;-69
2022/12/15 01:29:25;;;;;;;42.35;33.63;;;-4.30;99.90;;;;;;2067330;28;20038;-69
2022/12/15 01:30:26;;;;;;;40.80;31.70;;;-4.30;99.90;;;;;;2069601;28;20038;-69
2022/12/15 01:31:26;;;;;;;39.60;31.90;;;-4.30;99.90;;;;;;2078330;28;20040;-69
2022/12/15 01:32:27;;;;;;;38.63;30.45;;;-4.30;99.90;;;;;;2076603;28;20087;-69
2022/12/15 01:33:28;;;;;;;37.95;32.70;;;-4.30;99.90;;;;;;2076510;28;20025;-69
2022/12/15 01:34:28;;;;;;;42.20;33.65;;;-4.30;99.90;;;;;;2076744;28;20986;-69
2022/12/15 01:35:29;;;;;;;41.85;32.90;;;-4.30;99.90;;;;;;2076709;28;20060;-69
2022/12/15 01:36:29;;;;;;;41.50;31.85;;;-4.30;99.90;;;;;;2078528;28;20582;-69
2022/12/15 01:37:30;;;;;;;41.40;31.45;;;-4.30;99.90;;;;;;2077068;28;21100;-69
2022/12/15 01:38:31;;;;;;;41.35;32.17;;;-4.30;99.90;;;;;;2077427;28;20116;-69
2022/12/15 01:40:43;;;;;;;43.38;32.25;;;-4.30;99.90;;;;;;2078601;28;20550;-69
2022/12/15 01:40:58;;;;;;;41.20;31.52;;;-4.30;99.90;;;;;;2078725;28;20056;-69
2022/12/15 01:41:58;;;;;;;42.50;32.08;;;-4.30;99.90;;;;;;2077266;28;20052;-69
2022/12/15 01:42:59;;;;;;;42.55;33.00;;;-4.30;99.90;;;;;;2078050;28;20614;-69
2022/12/15 01:44:21;;;;;;;40.28;31.02;;;-4.30;99.90;;;;;;2077390;28;20033;-69
2022/12/15 01:45:28;;;;;;;44.47;32.30;;;-4.30;99.90;;;;;;2075845;28;20037;-69
2022/12/15 01:46:28;;;;;;;40.53;30.90;;;-4.30;99.90;;;;;;2075954;28;20022;-69
2022/12/15 01:47:29;;;;;;;38.63;30.75;;;-4.30;99.90;;;;;;2076121;28;20016;-69
2022/12/15 01:48:39;;;;;;;39.50;33.15;;;-4.30;99.90;;;;;;2075923;28;20046;-69
2022/12/15 01:49:42;;;;;;;45.67;33.10;;;-4.30;99.90;;;;;;2077961;28;20508;-69
2022/12/15 01:50:48;;;;;;;38.83;30.33;;;-4.20;99.90;;;;;;2078666;28;20095;-69
2022/12/15 01:51:52;;;;;;;39.50;31.00;;;-4.20;99.90;;;;;;2075937;28;20049;-69
2022/12/15 01:52:54;;;;;;;41.97;31.50;;;-4.20;99.90;;;;;;2077043;28;20053;-69
2022/12/15 01:54:00;;;;;;;39.05;31.20;;;-4.20;99.90;;;;;;2075668;28;20097;-69
2022/12/15 01:55:00;;;;;;;43.92;33.30;;;-4.20;99.90;;;;;;2074591;28;20432;-69
2022/12/15 01:56:04;;;;;;;42.28;32.83;;;-4.10;99.90;;;;;;2076895;28;20029;-69
2022/12/15 01:57:10;;;;;;;40.53;31.42;;;-4.10;99.90;;;;;;2075847;28;20056;-69
2022/12/15 01:58:14;;;;;;;41.70;33.50;;;-4.10;99.90;;;;;;2077207;28;20017;-69
2022/12/15 01:59:42;;;;;;;38.70;31.20;;;-4.10;99.90;;;;;;2077474;28;20024;-69
2022/12/15 02:00:43;;;;;;;40.08;32.05;;;-4.00;99.90;;;;;;2075488;28;20037;-69
2022/12/15 02:01:44;;;;;;;45.15;31.65;;;-4.10;99.90;;;;;;2075224;28;20022;-69
2022/12/15 02:02:44;;;;;;;42.40;31.90;;;-4.00;99.90;;;;;;2077235;28;20466;-69
2022/12/15 02:03:46;;;;;;;43.85;31.02;;;-4.00;99.90;;;;;;2077056;28;20436;-69
2022/12/15 02:04:50;;;;;;;40.05;31.67;;;-4.00;99.90;;;;;;2076032;28;20030;-69
2022/12/15 02:05:52;;;;;;;42.75;32.83;;;-4.00;99.90;;;;;;2068591;28;20032;-69
2022/12/15 02:06:52;;;;;;;40.15;32.92;;;-3.90;99.90;;;;;;2077750;28;20493;-69
2022/12/15 02:07:53;;;;;;;48.58;33.17;;;-3.90;99.90;;;;;;2077089;28;20056;-69
2022/12/15 02:08:56;;;;;;;42.55;31.48;;;-3.90;99.90;;;;;;2078314;28;20026;-69
2022/12/15 02:10:00;;;;;;;40.88;32.85;;;-3.90;99.90;;;;;;2075510;28;20051;-69
2022/12/15 02:11:19;;;;;;;44.90;33.38;;;-3.90;99.90;;;;;;2075865;28;20033;-69
2022/12/15 02:12:36;;;;;;;43.78;31.90;;;-3.90;99.90;;;;;;2076511;28;20030;-69
2022/12/15 02:13:55;;;;;;;39.75;30.98;;;-3.80;99.90;;;;;;2076630;28;20029;-69
2022/12/15 02:15:19;;;;;;;41.97;30.88;;;-3.80;99.90;;;;;;2076768;28;20404;-69
2022/12/15 02:16:48;;;;;;;37.30;28.52;;;-3.80;99.90;;;;;;2076911;28;20033;-69
2022/12/15 02:18:31;;;;;;;39.03;30.58;;;-3.80;99.90;;;;;;2076606;28;20026;-69
2022/12/15 02:20:11;;;;;;;44.20;31.88;;;-3.80;99.90;;;;;;2077518;28;20041;-69
2022/12/15 02:21:28;;;;;;;39.05;30.45;;;-3.80;99.90;;;;;;2074705;28;20108;-69
2022/12/15 02:23:00;;;;;;;39.20;31.38;;;-3.80;99.90;;;;;;2075991;28;20042;-69
2022/12/15 02:24:48;;;;;;;42.13;32.58;;;-3.80;99.90;;;;;;2076619;28;20034;-69
2022/12/15 02:26:20;;;;;;;44.28;30.20;;;-3.80;99.90;;;;;;2077177;28;20036;-69
2022/12/15 02:27:29;;;;;;;37.95;29.00;;;-3.80;99.90;;;;;;2078787;28;20512;-69
2022/12/15 02:28:51;;;;;;;37.45;29.15;;;-3.80;99.90;;;;;;2075406;28;20040;-69
2022/12/15 02:30:15;;;;;;;42.63;30.20;;;-3.80;99.90;;;;;;2076282;28;20026;-69
2022/12/15 02:33:07;;;;;;;35.97;29.67;;;-3.80;99.90;;;;;;2075587;28;20033;-69
2022/12/15 02:34:31;;;;;;;38.17;30.17;;;-3.80;99.90;;;;;;2075611;28;20026;-69
2022/12/15 02:36:00;;;;;;;39.05;29.42;;;-3.70;99.90;;;;;;2077450;28;20036;-69
2022/12/15 02:37:05;;;;;;;39.47;27.85;;;-3.70;99.90;;;;;;2078516;28;20021;-69
2022/12/15 02:38:08;;;;;;;48.47;28.23;;;-3.70;99.90;;;;;;2076971;28;20595;-69
2022/12/15 02:39:11;;;;;;;36.00;30.15;;;-3.70;99.90;;;;;;2077693;28;20512;-69
2022/12/15 02:40:12;;;;;;;35.25;28.73;;;-3.70;99.90;;;;;;2076806;28;20021;-69
2022/12/15 02:41:31;;;;;;;42.40;30.52;;;-3.70;99.90;;;;;;2077907;28;20032;-69
2022/12/15 02:42:34;;;;;;;40.33;31.35;;;-3.60;99.90;;;;;;2075781;28;20029;-69
2022/12/15 02:43:37;;;;;;;37.50;29.77;;;-3.60;99.90;;;;;;2078047;28;20603;-69
2022/12/15 02:45:06;;;;;;;37.22;29.42;;;-3.60;99.90;;;;;;2076149;28;20029;-69
2022/12/15 02:46:36;;;;;;;35.85;29.02;;;-3.60;99.90;;;;;;2077220;28;20057;-69
2022/12/15 02:48:10;;;;;;;37.22;28.02;;;-3.60;99.90;;;;;;2077281;28;20018;-69
2022/12/15 02:49:25;;;;;;;40.65;31.42;;;-3.60;99.90;;;;;;2077056;28;20072;-69
2022/12/15 02:50:50;;;;;;;36.47;31.15;;;-3.60;99.90;;;;;;2077014;28;20025;-69
2022/12/15 02:52:31;;;;;;;36.35;28.35;;;-3.60;99.90;;;;;;2075123;28;20556;-69
2022/12/15 02:54:07;;;;;;;40.38;31.15;;;-3.60;99.90;;;;;;2070673;28;20042;-69
2022/12/15 02:55:14;;;;;;;39.45;27.38;;;-3.60;99.90;;;;;;2075478;28;20053;-69
2022/12/15 02:56:27;;;;;;;44.63;29.10;;;-3.60;99.90;;;;;;2074158;28;20108;-69
2022/12/15 02:57:53;;;;;;;38.40;30.27;;;-3.50;99.90;;;;;;2076349;28;20037;-69
2022/12/15 02:59:09;;;;;;;38.13;28.75;;;-3.50;99.90;;;;;;2076669;28;20102;-69
2022/12/15 03:00:11;;;;;;;35.33;29.80;;;-3.50;99.90;;;;;;2077363;28;20079;-69
2022/12/15 03:01:39;;;;;;;41.55;31.00;;;-3.50;99.90;;;;;;2076227;28;20068;-69
2022/12/15 03:02:44;;;;;;;41.80;29.75;;;-3.50;99.90;;;;;;2076170;28;20025;-69
2022/12/15 03:03:47;;;;;;;36.72;28.95;;;-3.50;99.90;;;;;;2076486;28;20030;-69
2022/12/15 03:04:48;;;;;;;35.17;28.92;;;-3.50;99.90;;;;;;2074600;28;20022;-69
2022/12/15 03:05:53;;;;;;;36.30;28.85;;;-3.50;99.90;;;;;;2076200;28;20038;-69
2022/12/15 03:06:59;;;;;;;37.38;28.67;;;-3.40;99.90;;;;;;2075695;28;20030;-69
2022/12/15 03:08:00;;;;;;;34.83;28.70;;;-3.40;99.90;;;;;;2074546;28;21141;-69
2022/12/15 03:09:00;;;;;;;38.03;30.45;;;-3.40;99.90;;;;;;2076236;28;20093;-69
2022/12/15 03:10:04;;;;;;;40.35;30.35;;;-3.40;99.90;;;;;;2075670;28;20063;-69
2022/12/15 03:11:05;;;;;;;41.05;31.10;;;-3.40;99.90;;;;;;2073887;28;20030;-69
2022/12/15 03:12:06;;;;;;;38.22;29.83;;;-3.40;99.90;;;;;;2074776;28;20108;-69
2022/12/15 03:13:06;;;;;;;39.60;30.27;;;-3.30;99.90;;;;;;2075292;28;20075;-69
2022/12/15 03:14:07;;;;;;;42.50;30.40;;;-3.30;99.90;;;;;;2076965;28;20037;-69
2022/12/15 03:15:08;;;;;;;34.75;28.40;;;-3.30;99.90;;;;;;2078293;28;20454;-69
2022/12/15 03:16:08;;;;;;;37.67;28.20;;;-3.30;99.90;;;;;;2073706;28;20033;-69
2022/12/15 03:17:09;;;;;;;38.00;30.20;;;-3.40;99.90;;;;;;2075838;28;20452;-69
2022/12/15 03:18:09;;;;;;;38.72;30.67;;;-3.30;99.90;;;;;;2074031;28;20014;-69
2022/12/15 03:19:10;;;;;;;38.58;29.23;;;-3.30;99.90;;;;;;2073142;28;20036;-69
2022/12/15 03:20:11;;;;;;;40.67;30.40;;;-3.30;99.90;;;;;;2075733;28;20428;-69
2022/12/15 03:21:12;;;;;;;39.28;31.10;;;-3.30;99.90;;;;;;2075746;28;20026;-69
2022/12/15 03:22:12;;;;;;;40.40;31.00;;;-3.30;99.90;;;;;;2076954;28;20022;-69
2022/12/15 03:23:13;;;;;;;36.33;30.65;;;-3.30;99.90;;;;;;2076514;28;20026;-69
2022/12/15 03:24:13;;;;;;;36.15;30.02;;;-3.20;99.90;;;;;;2075300;28;20553;-69
2022/12/15 03:25:14;;;;;;;42.55;31.33;;;-3.20;99.90;;;;;;2074516;28;20036;-69
2022/12/15 03:26:15;;;;;;;40.67;31.65;;;-3.20;99.90;;;;;;2075372;28;20039;-69
2022/12/15 03:27:15;;;;;;;40.10;32.55;;;-3.20;99.90;;;;;;2074658;28;20033;-69
2022/12/15 03:28:16;;;;;;;40.28;29.65;;;-3.20;99.90;;;;;;2076672;28;20018;-69
2022/12/15 03:29:17;;;;;;;37.78;30.88;;;-3.20;99.90;;;;;;2074768;28;20378;-69
2022/12/15 03:30:18;;;;;;;41.58;31.27;;;-3.20;99.90;;;;;;2077068;28;20475;-69
2022/12/15 03:31:18;;;;;;;41.72;31.88;;;-3.20;99.90;;;;;;2074928;28;20018;-69
2022/12/15 03:32:19;;;;;;;37.45;30.23;;;-3.20;99.90;;;;;;2075996;28;20108;-69
2022/12/15 03:33:20;;;;;;;40.17;30.13;;;-3.10;99.90;;;;;;2075366;28;20033;-69
2022/12/15 03:34:20;;;;;;;40.95;30.67;;;-3.10;99.90;;;;;;2077183;28;20362;-69
2022/12/15 03:35:21;;;;;;;43.22;32.33;;;-3.10;99.90;;;;;;2074208;28;20138;-69
2022/12/15 03:36:21;;;;;;;43.60;31.42;;;-3.10;99.90;;;;;;2077851;28;20018;-69
2022/12/15 03:37:22;;;;;;;40.60;29.50;;;-3.10;99.90;;;;;;2077281;28;20128;-69
2022/12/15 03:38:23;;;;;;;42.40;32.97;;;-3.10;99.90;;;;;;2077063;28;20059;-69
2022/12/15 03:39:23;;;;;;;43.78;31.92;;;-3.10;99.90;;;;;;2075416;28;20718;-69
2022/12/15 03:40:24;;;;;;;40.83;33.33;;;-3.10;99.90;;;;;;2076488;28;20026;-69
2022/12/15 03:41:24;;;;;;;40.83;32.08;;;-3.10;99.90;;;;;;2075917;28;20029;-69
2022/12/15 03:43:45;;;;;;;41.25;30.42;;;-3.00;99.90;;;;;;2074246;28;20739;-69
2022/12/15 03:44:45;;;;;;;41.00;31.23;;;-3.10;99.90;;;;;;2073156;28;20028;-69
2022/12/15 03:45:46;;;;;;;43.13;31.50;;;-3.00;99.90;;;;;;2074302;28;20040;-69
2022/12/15 03:46:46;;;;;;;40.38;30.58;;;-3.00;99.90;;;;;;2076062;28;20032;-69
2022/12/15 03:47:48;;;;;;;41.53;30.55;;;-3.00;99.90;;;;;;2075517;28;20104;-69
2022/12/15 03:48:49;;;;;;;41.85;31.20;;;-3.00;99.90;;;;;;2075264;28;20580;-69
2022/12/15 03:49:49;;;;;;;41.95;31.55;;;-3.00;99.90;;;;;;2075726;28;20492;-69
2022/12/15 03:50:50;;;;;;;40.75;31.23;;;-3.00;99.90;;;;;;2076247;28;20491;-69
2022/12/15 03:51:51;;;;;;;40.38;31.60;;;-3.00;99.90;;;;;;2076109;28;20075;-69
2022/12/15 03:52:56;;;;;;;39.88;32.53;;;-3.00;99.90;;;;;;2075912;28;20024;-70
2022/12/15 03:53:57;;;;;;;43.65;32.50;;;-3.00;99.90;;;;;;2075879;28;20022;-69
2022/12/15 03:54:58;;;;;;;39.28;30.45;;;-3.00;99.90;;;;;;2077652;28;20029;-69
2022/12/15 03:55:58;;;;;;;42.20;31.77;;;-3.00;99.90;;;;;;2075150;28;20561;-69
2022/12/15 03:56:59;;;;;;;39.45;30.58;;;-3.00;99.90;;;;;;2074715;28;20040;-69
2022/12/15 03:57:59;;;;;;;39.67;31.02;;;-3.00;99.90;;;;;;2074451;28;20108;-69
2022/12/15 03:59:00;;;;;;;39.22;31.85;;;-3.00;99.90;;;;;;2075367;28;20021;-69
2022/12/15 04:00:01;;;;;;;43.45;31.23;;;-3.00;99.90;;;;;;2076868;28;20033;-69
2022/12/15 04:01:10;;;;;;;42.30;32.40;;;-3.00;99.90;;;;;;2075790;28;20036;-69
2022/12/15 04:02:11;;;;;;;38.78;29.58;;;-2.90;99.90;;;;;;2076612;28;20104;-69
2022/12/15 04:03:11;;;;;;;41.08;31.00;;;-3.00;99.90;;;;;;2075634;28;20677;-69
2022/12/15 04:04:12;;;;;;;38.30;30.58;;;-3.00;99.90;;;;;;2073321;28;20017;-69
2022/12/15 04:05:16;;;;;;;40.55;30.60;;;-2.90;99.90;;;;;;2076349;28;20032;-69
2022/12/15 04:06:17;;;;;;;42.80;31.15;;;-2.90;99.90;;;;;;2076450;28;20148;-69
2022/12/15 04:07:17;;;;;;;41.15;32.85;;;-2.90;99.90;;;;;;2075605;28;20025;-69
2022/12/15 04:08:25;;;;;;;39.97;31.45;;;-2.90;99.90;;;;;;2076878;28;20091;-69
2022/12/15 04:09:26;;;;;;;42.13;32.83;;;-2.90;99.90;;;;;;2074695;28;20034;-69
2022/12/15 04:10:28;;;;;;;38.67;31.45;;;-2.90;99.90;;;;;;2076549;28;20013;-69
2022/12/15 04:11:29;;;;;;;39.28;31.08;;;-2.90;99.90;;;;;;2076357;28;20029;-69
2022/12/15 04:12:30;;;;;;;38.65;31.33;;;-2.90;99.90;;;;;;2077322;28;20050;-69
2022/12/15 04:13:30;;;;;;;41.08;31.67;;;-2.90;99.90;;;;;;2075960;28;20052;-69
2022/12/15 04:14:31;;;;;;;39.85;31.98;;;-2.90;99.90;;;;;;2075195;28;20080;-69
2022/12/15 04:15:33;;;;;;;43.25;32.22;;;-2.90;99.90;;;;;;2075843;28;20101;-69
2022/12/15 04:16:33;;;;;;;39.90;31.88;;;-2.80;99.90;;;;;;2076001;28;20017;-69
2022/12/15 04:17:34;;;;;;;38.67;31.05;;;-2.90;99.90;;;;;;2076425;28;20061;-69
2022/12/15 04:18:35;;;;;;;42.65;31.42;;;-2.80;99.90;;;;;;2082114;28;20037;-69
2022/12/15 04:20:55;;;;;;;41.80;30.67;;;-2.80;99.90;;;;;;2075971;28;20261;-69
2022/12/15 04:21:56;;;;;;;37.75;31.40;;;-2.80;99.90;;;;;;2083613;28;20131;-69
2022/12/15 04:22:57;;;;;;;38.47;31.02;;;-2.80;99.90;;;;;;2084463;28;20044;-69
2022/12/15 05:31:51;;;;;;;32.00;24.50;;;-3.40;99.90;;;;;;2075766;28;20054;-69
2022/12/15 05:32:51;;;;;;;33.42;26.20;;;-3.40;99.90;;;;;;2073104;28;20474;-69
2022/12/15 05:33:56;;;;;;;34.75;26.05;;;-3.40;99.90;;;;;;2074365;28;20119;-69
2022/12/15 05:34:56;;;;;;;30.45;24.50;;;-3.40;99.90;;;;;;2073549;28;20555;-69
2022/12/15 05:35:57;;;;;;;29.73;24.45;;;-3.40;99.90;;;;;;2074357;28;20021;-69
2022/12/15 05:36:59;;;;;;;33.55;26.10;;;-3.40;99.90;;;;;;2077256;28;20025;-69
2022/12/15 05:37:59;;;;;;;36.33;27.77;;;-3.40;99.90;;;;;;2075267;28;20032;-69
2022/12/15 05:39:00;;;;;;;33.20;27.02;;;-3.40;99.90;;;;;;2074030;28;20592;-69
2022/12/15 05:40:00;;;;;;;33.63;26.50;;;-3.40;99.90;;;;;;2075905;28;20143;-69
2022/12/15 05:41:01;;;;;;;34.53;26.15;;;-3.40;99.90;;;;;;2077038;28;20022;-69
2022/12/15 05:42:02;;;;;;;32.47;25.48;;;-3.40;99.90;;;;;;2077195;28;20056;-69
2022/12/15 05:43:03;;;;;;;32.15;26.35;;;-3.40;99.90;;;;;;2075617;28;20033;-69
2022/12/15 05:44:03;;;;;;;34.50;29.08;;;-3.40;99.90;;;;;;2078060;28;20036;-69
2022/12/15 05:45:04;;;;;;;32.40;25.20;;;-3.40;99.90;;;;;;2078611;28;20033;-69
2022/12/15 05:46:05;;;;;;;34.60;27.25;;;-3.50;99.90;;;;;;2082108;28;20112;-69
2022/12/15 05:47:07;;;;;;;34.90;26.30;;;-3.50;99.90;;;;;;2084347;28;20034;-69
2022/12/15 05:48:07;;;;;;;34.75;26.70;;;-3.50;99.90;;;;;;2077265;28;20049;-69
2022/12/15 05:49:11;;;;;;;28.85;24.55;;;-3.50;99.90;;;;;;2076863;28;20049;-69
2022/12/15 05:50:11;;;;;;;34.03;26.25;;;-3.50;99.90;;;;;;2076773;28;20029;-69
2022/12/15 05:51:13;;;;;;;35.67;25.77;;;-3.50;99.90;;;;;;2077000;28;20493;-69
2022/12/15 05:52:13;;;;;;;31.92;24.33;;;-3.50;99.90;;;;;;2076203;28;20021;-69
2022/12/15 05:53:14;;;;;;;32.65;25.42;;;-3.50;99.90;;;;;;2077659;28;20025;-69
2022/12/15 05:54:19;;;;;;;32.92;25.10;;;-3.50;99.90;;;;;;2076018;28;20429;-69
2022/12/15 05:55:19;;;;;;;32.22;24.92;;;-3.50;99.90;;;;;;2076779;28;20014;-69
2022/12/15 05:56:20;;;;;;;34.60;27.67;;;-3.50;99.90;;;;;;2074543;28;21840;-69
2022/12/15 05:57:20;;;;;;;32.92;26.50;;;-3.50;99.90;;;;;;2076031;28;20393;-69
2022/12/15 05:58:21;;;;;;;35.28;28.90;;;-3.50;99.90;;;;;;2077692;28;20064;-69
2022/12/15 05:59:21;;;;;;;32.38;26.50;;;-3.50;99.90;;;;;;2075926;28;20021;-69
2022/12/15 06:00:22;;;;;;;34.42;26.35;;;-3.50;99.90;;;;;;2077453;28;20026;-69
2022/12/15 06:01:24;;;;;;;30.58;23.52;;;-3.60;99.90;;;;;;2076610;28;20031;-69
2022/12/15 06:02:26;;;;;;;33.15;25.65;;;-3.60;99.90;;;;;;2076304;28;20022;-69
2022/12/15 06:03:27;;;;;;;30.65;24.55;;;-3.60;99.90;;;;;;2084264;28;20025;-69
2022/12/15 06:04:28;;;;;;;31.95;25.45;;;-3.60;99.90;;;;;;2077703;28;20025;-69
2022/12/15 06:05:28;;;;;;;35.33;26.30;;;-3.60;99.90;;;;;;2076915;28;20692;-69
2022/12/15 06:06:29;;;;;;;32.05;25.60;;;-3.60;99.90;;;;;;2076963;28;20076;-69
2022/12/15 06:07:29;;;;;;;28.95;24.55;;;-3.60;99.90;;;;;;2077793;28;20021;-69
2022/12/15 06:08:33;;;;;;;31.00;24.92;;;-3.60;99.90;;;;;;2075804;28;20033;-69
2022/12/15 06:09:34;;;;;;;30.10;24.45;;;-3.70;99.90;;;;;;2077605;28;20087;-69
2022/12/15 06:10:34;;;;;;;32.75;27.45;;;-3.70;99.90;;;;;;2084222;28;20102;-69
2022/12/15 06:11:36;;;;;;;29.27;23.45;;;-3.70;99.90;;;;;;2076279;28;20056;-69
2022/12/15 06:12:36;;;;;;;31.98;24.33;;;-3.70;99.90;;;;;;2074414;28;20018;-69
2022/12/15 06:13:37;;;;;;;34.13;24.40;;;-3.70;99.90;;;;;;2075521;28;20029;-69
2022/12/15 06:14:37;;;;;;;31.15;23.75;;;-3.70;99.90;;;;;;2072824;28;20026;-69
2022/12/15 06:15:38;;;;;;;28.77;23.67;;;-3.70;99.90;;;;;;2075133;28;20021;-69
2022/12/15 06:16:39;;;;;;;30.33;24.27;;;-3.70;99.90;;;;;;2084107;28;20040;-69
2022/12/15 06:17:39;;;;;;;30.75;25.52;;;-3.70;99.90;;;;;;2083700;28;20508;-69
2022/12/15 06:18:42;;;;;;;34.83;26.95;;;-3.80;99.90;;;;;;2076644;28;20144;-69
2022/12/15 06:19:43;;;;;;;29.77;24.30;;;-3.70;99.90;;;;;;2073890;28;20505;-69
2022/12/15 06:20:43;;;;;;;30.27;23.73;;;-3.70;99.90;;;;;;2075655;28;20417;-69
2022/12/15 06:21:44;;;;;;;31.05;25.13;;;-3.80;99.90;;;;;;2073609;28;20040;-69
2022/12/15 06:22:44;;;;;;;28.55;24.02;;;-3.80;99.90;;;;;;2068319;28;20065;-69
2022/12/15 06:23:46;;;;;;;32.53;24.52;;;-3.70;99.90;;;;;;2076126;28;20045;-69
2022/12/15 06:24:47;;;;;;;26.90;21.50;;;-3.80;99.90;;;;;;2074252;28;20022;-69
2022/12/15 06:25:47;;;;;;;27.77;23.42;;;-3.80;99.90;;;;;;2075350;28;20053;-69
2022/12/15 06:26:48;;;;;;;27.17;23.25;;;-3.80;99.90;;;;;;2083783;28;20017;-69
2022/12/15 06:27:48;;;;;;;34.20;25.13;;;-3.80;99.90;;;;;;2084107;28;20053;-69
2022/12/15 06:28:50;;;;;;;32.22;25.02;;;-3.80;99.90;;;;;;2076013;28;20535;-69
2022/12/15 06:29:50;;;;;;;28.30;23.10;;;-3.80;99.90;;;;;;2076115;28;20025;-69
2022/12/15 06:30:52;;;;;;;28.15;23.08;;;-3.80;99.90;;;;;;2082279;28;20028;-69
2022/12/15 06:31:52;;;;;;;31.92;23.92;;;-3.80;99.90;;;;;;2082568;28;20017;-69
2022/12/15 06:32:53;;;;;;;29.98;23.40;;;-3.80;99.90;;;;;;2075354;28;20033;-69
2022/12/15 06:33:54;;;;;;;29.42;23.20;;;-3.80;99.90;;;;;;2073428;28;20025;-69
2022/12/15 06:34:55;;;;;;;29.10;23.88;;;-3.80;99.90;;;;;;2074729;28;20436;-69
2022/12/15 06:35:56;;;;;;;28.92;23.27;;;-3.80;99.90;;;;;;2075929;28;20045;-69
2022/12/15 06:36:56;;;;;;;31.88;23.48;;;-3.90;99.90;;;;;;2076837;28;20065;-69
2022/12/15 06:37:56;;;;;;;30.50;25.13;;;-3.90;99.90;;;;;;2077121;28;20029;-69
2022/12/15 06:38:59;;;;;;;30.83;24.95;;;-3.80;99.90;;;;;;2067241;28;20041;-69
2022/12/15 06:40:00;;;;;;;29.20;23.02;;;-3.90;99.90;;;;;;2075238;28;20437;-69
2022/12/15 06:41:02;;;;;;;33.60;23.75;;;-3.90;99.90;;;;;;2076894;28;20095;-69
2022/12/15 06:42:03;;;;;;;31.25;24.85;;;-3.90;99.90;;;;;;2075102;28;20113;-69
2022/12/15 06:43:04;;;;;;;32.78;24.02;;;-3.90;99.90;;;;;;2076577;28;20037;-69
2022/12/15 06:44:05;;;;;;;30.70;24.90;;;-4.00;99.90;;;;;;2076197;28;20064;-69
2022/12/15 06:45:07;;;;;;;30.60;24.20;;;-4.00;99.90;;;;;;2074224;28;20045;-69
2022/12/15 06:46:08;;;;;;;30.88;23.75;;;-4.00;99.90;;;;;;2074430;28;20057;-69
2022/12/15 06:47:08;;;;;;;31.23;24.50;;;-4.00;99.90;;;;;;2075104;28;20025;-69
2022/12/15 06:48:09;;;;;;;32.08;25.88;;;-4.00;99.90;;;;;;2083214;28;20024;-69
2022/12/15 06:49:09;;;;;;;31.27;25.20;;;-4.00;99.90;;;;;;2077818;28;20025;-69
2022/12/15 06:50:10;;;;;;;29.73;23.05;;;-4.00;99.90;;;;;;2075420;28;20025;-69
2022/12/15 06:51:12;;;;;;;31.00;23.23;;;-4.00;99.90;;;;;;2075635;28;20078;-69
2022/12/15 06:52:13;;;;;;;30.65;23.67;;;-4.00;99.90;;;;;;2074787;28;20045;-69
2022/12/15 06:53:18;;;;;;;32.75;24.92;;;-4.00;99.90;;;;;;2075858;28;20520;-70
2022/12/15 06:54:19;;;;;;;28.95;22.75;;;-4.00;99.90;;;;;;2075602;28;20033;-69
2022/12/15 06:55:19;;;;;;;32.05;23.92;;;-4.00;99.90;;;;;;2082502;28;20108;-69
2022/12/15 06:56:25;;;;;;;28.67;23.13;;;-4.00;99.90;;;;;;2084686;28;20108;-69
2022/12/15 06:57:26;;;;;;;29.42;22.75;;;-4.00;99.90;;;;;;2074890;28;20021;-69
2022/12/15 06:58:26;;;;;;;33.20;24.95;;;-4.00;99.90;;;;;;2076158;28;20045;-69
2022/12/15 06:59:27;;;;;;;32.28;23.77;;;-4.00;99.90;;;;;;2076131;28;20034;-69
2022/12/15 07:00:28;;;;;;;31.13;24.52;;;-4.00;99.90;;;;;;2075497;28;20080;-69
2022/12/15 07:01:29;;;;;;;30.05;23.80;;;-4.10;99.90;;;;;;2073815;28;20049;-69
2022/12/15 07:02:31;;;;;;;31.08;23.55;;;-4.10;99.90;;;;;;2075058;28;20025;-69
2022/12/15 07:03:32;;;;;;;31.23;23.17;;;-4.10;99.90;;;;;;2075196;28;20025;-69
2022/12/15 07:04:32;;;;;;;32.05;23.73;;;-4.10;99.90;;;;;;2075976;28;20108;-69
2022/12/15 07:05:33;;;;;;;31.65;24.35;;;-4.10;99.90;;;;;;2076118;28;20116;-69
2022/12/15 07:06:36;;;;;;;32.42;24.90;;;-4.10;99.90;;;;;;2076174;28;20051;-69
2022/12/15 07:07:36;;;;;;;30.58;23.10;;;-4.10;99.90;;;;;;2076340;28;20220;-69
2022/12/15 07:08:37;;;;;;;28.23;23.50;;;-4.10;99.90;;;;;;2075384;28;20132;-69
2022/12/15 07:09:37;;;;;;;29.30;23.10;;;-4.20;99.90;;;;;;2076082;28;20053;-69
2022/12/15 07:10:39;;;;;;;34.45;24.00;;;-4.20;99.90;;;;;;2076289;28;20049;-69
2022/12/15 07:11:40;;;;;;;27.35;22.55;;;-4.10;99.90;;;;;;2075962;28;20017;-69
2022/12/15 07:12:40;;;;;;;31.40;24.17;;;-4.20;99.90;;;;;;2077060;28;20036;-69
2022/12/15 07:13:41;;;;;;;35.17;24.80;;;-4.10;99.90;;;;;;2075768;28;20360;-69
2022/12/15 07:14:41;;;;;;;33.97;27.48;;;-4.10;99.90;;;;;;2074924;28;20021;-69
2022/12/15 07:15:43;;;;;;;31.77;24.42;;;-4.10;99.90;;;;;;2075375;28;20021;-69
2022/12/15 07:16:44;;;;;;;35.10;28.20;;;-4.20;99.90;;;;;;2075812;28;20040;-69
2022/12/15 07:17:45;;;;;;;35.55;26.25;;;-4.20;99.90;;;;;;2075827;28;20072;-69
2022/12/15 07:18:46;;;;;;;34.20;25.85;;;-4.20;99.90;;;;;;2075026;28;20131;-69
2022/12/15 07:19:46;;;;;;;34.47;26.38;;;-4.20;99.90;;;;;;2077509;28;20485;-69
2022/12/15 07:20:47;;;;;;;36.33;27.38;;;-4.20;99.90;;;;;;2077368;28;20036;-69
2022/12/15 07:21:47;;;;;;;36.63;27.25;;;-4.20;99.90;;;;;;2074345;28;20033;-69
2022/12/15 07:22:51;;;;;;;37.05;27.13;;;-4.20;99.90;;;;;;2075757;28;20026;-69
2022/12/15 07:23:52;;;;;;;29.75;23.67;;;-4.30;99.90;;;;;;2076749;28;20116;-69
2022/12/15 07:24:52;;;;;;;34.97;27.25;;;-4.20;99.90;;;;;;2072825;28;20088;-69
2022/12/15 07:25:53;;;;;;;34.72;27.40;;;-4.20;99.90;;;;;;2074088;28;20041;-69
2022/12/15 07:26:53;;;;;;;37.45;28.23;;;-4.30;99.90;;;;;;2074607;28;20549;-70
2022/12/15 07:27:55;;;;;;;33.60;26.67;;;-4.30;99.90;;;;;;2076034;28;20036;-69
2022/12/15 07:28:55;;;;;;;37.00;27.08;;;-4.30;99.90;;;;;;2076418;28;20021;-69
2022/12/15 07:29:56;;;;;;;36.17;27.50;;;-4.30;99.90;;;;;;2076011;28;20104;-69
2022/12/15 07:31:03;;;;;;;34.25;27.77;;;-4.20;99.90;;;;;;2077182;28;20050;-69
2022/12/15 07:32:04;;;;;;;34.08;26.45;;;-4.30;99.90;;;;;;2077202;28;20407;-69
2022/12/15 07:33:05;;;;;;;35.95;27.13;;;-4.30;99.90;;;;;;2075776;28;20095;-69
2022/12/15 07:34:06;;;;;;;35.60;27.58;;;-4.30;99.90;;;;;;2076637;28;20018;-69
2022/12/15 07:35:07;;;;;;;34.42;27.92;;;-4.30;99.90;;;;;;2076336;28;20025;-69
2022/12/15 07:36:08;;;;;;;33.10;27.38;;;-4.30;99.90;;;;;;2075745;28;20014;-69
2022/12/15 07:37:08;;;;;;;38.75;28.75;;;-4.30;99.90;;;;;;2076680;28;20036;-69
2022/12/15 07:38:09;;;;;;;33.80;28.25;;;-4.30;99.90;;;;;;2083440;28;20124;-69
2022/12/15 07:39:09;;;;;;;35.80;26.65;;;-4.30;99.90;;;;;;2083983;28;20737;-69
2022/12/15 07:40:10;;;;;;;39.95;28.35;;;-4.30;99.90;;;;;;2075270;28;20044;-69
2022/12/15 07:41:11;;;;;;;34.25;26.75;;;-4.30;99.90;;;;;;2076178;28;20795;-69
2022/12/15 07:42:11;;;;;;;30.20;25.08;;;-4.30;99.90;;;;;;2074950;28;20021;-69
2022/12/15 07:43:12;;;;;;;37.83;28.30;;;-4.30;99.90;;;;;;2075466;28;20083;-69
2022/12/15 07:44:13;;;;;;;34.58;27.25;;;-4.30;99.90;;;;;;2073849;28;20509;-69
2022/12/15 07:45:14;;;;;;;38.50;28.42;;;-4.30;99.90;;;;;;2075758;28;20018;-69